createdAt,value
2019-04-07T00:00:40.995Z,950.45
2019-04-07T00:01:40.261Z,950.44
2019-04-07T00:02:40.792Z,950.37
2019-04-07T00:03:40.232Z,950.38
2019-04-07T00:04:40.787Z,950.34
2019-04-07T00:05:40.227Z,950.35
2019-04-07T00:06:40.225Z,950.39
2019-04-07T00:07:40.250Z,950.31
2019-04-07T00:08:40.187Z,950.32
2019-04-07T00:09:40.163Z,950.36
2019-04-07T00:10:40.224Z,950.37
2019-04-07T00:11:40.172Z,950.35
2019-04-07T00:12:40.152Z,950.33
2019-04-07T00:13:40.121Z,950.35
2019-04-07T00:14:40.117Z,950.38
2019-04-07T00:15:40.097Z,950.36
2019-04-07T00:16:40.107Z,950.35
2019-04-07T00:17:40.114Z,950.38
2019-04-07T00:18:40.069Z,950.37
2019-04-07T00:19:40.251Z,950.41
2019-04-07T00:20:40.250Z,950.44
2019-04-07T00:21:40.039Z,950.38
2019-04-07T00:22:40.617Z,950.43
2019-04-07T00:23:40.040Z,950.44
2019-04-07T00:24:40.001Z,950.39
2019-04-07T00:25:39.995Z,950.43
2019-04-07T00:26:40.568Z,950.45
2019-04-07T00:27:40.438Z,950.44
2019-04-07T00:28:39.973Z,950.42
2019-04-07T00:29:39.971Z,950.43
2019-04-07T00:30:40.012Z,950.37
2019-04-07T00:31:39.920Z,950.41
2019-04-07T00:32:39.941Z,950.42
2019-04-07T00:33:40.194Z,950.31
2019-04-07T00:34:39.912Z,950.29
2019-04-07T00:35:39.901Z,950.32
2019-04-07T00:36:39.863Z,950.30
2019-04-07T00:37:39.855Z,950.27
2019-04-07T00:38:39.852Z,950.32
2019-04-07T00:39:39.850Z,950.30
2019-04-07T00:40:40.390Z,950.30
2019-04-07T00:41:40.315Z,950.31
2019-04-07T00:42:40.235Z,950.31
2019-04-07T00:43:39.788Z,950.27
2019-04-07T00:44:39.962Z,950.27
2019-04-07T00:45:40.512Z,950.29
2019-04-07T00:46:39.839Z,950.30
2019-04-07T00:47:40.192Z,950.34
2019-04-07T00:48:39.735Z,950.36
2019-04-07T00:49:40.159Z,950.36
2019-04-07T00:50:39.747Z,950.42
2019-04-07T00:51:39.729Z,950.41
2019-04-07T00:52:40.250Z,950.43
2019-04-07T00:53:39.683Z,950.38
2019-04-07T00:54:40.248Z,950.37
2019-04-07T00:55:39.715Z,950.39
2019-04-07T00:56:40.134Z,950.40
2019-04-07T00:57:39.646Z,950.35
2019-04-07T00:58:39.647Z,950.40
2019-04-07T00:59:39.736Z,950.39
2019-04-07T01:00:39.996Z,950.36
2019-04-07T01:01:39.914Z,950.41
2019-04-07T01:02:39.868Z,950.42
2019-04-07T01:03:40.264Z,950.39
2019-04-07T01:04:39.679Z,950.40
2019-04-07T01:05:41.723Z,950.40
2019-04-07T01:06:39.555Z,950.44
2019-04-07T01:07:39.887Z,950.40
2019-04-07T01:08:39.524Z,950.39
2019-04-07T01:09:39.911Z,950.43
2019-04-07T01:10:39.515Z,950.48
2019-04-07T01:11:39.640Z,950.45
2019-04-07T01:12:40.010Z,950.41
2019-04-07T01:13:40.091Z,950.45
2019-04-07T01:14:40.048Z,950.42
2019-04-07T01:15:39.605Z,950.42
2019-04-07T01:16:39.444Z,950.42
2019-04-07T01:17:39.413Z,950.43
2019-04-07T01:18:39.405Z,950.35
2019-04-07T01:19:39.826Z,950.43
2019-04-07T01:20:39.387Z,950.40
2019-04-07T01:21:39.393Z,950.41
2019-04-07T01:22:39.824Z,950.45
2019-04-07T01:23:39.351Z,950.44
2019-04-07T01:24:39.494Z,950.37
2019-04-07T01:25:39.546Z,950.41
2019-04-07T01:26:39.416Z,950.39
2019-04-07T01:27:39.321Z,950.40
2019-04-07T01:28:39.295Z,950.42
2019-04-07T01:29:39.950Z,950.49
2019-04-07T01:30:39.273Z,950.46
2019-04-07T01:31:39.552Z,950.45
2019-04-07T01:32:39.512Z,950.45
2019-04-07T01:33:40.037Z,950.41
2019-04-07T01:34:39.431Z,950.38
2019-04-07T01:35:46.247Z,950.45
2019-04-07T01:36:39.209Z,950.40
2019-04-07T01:37:39.583Z,950.43
2019-04-07T01:38:39.194Z,950.40
2019-04-07T01:39:39.486Z,950.38
2019-04-07T01:40:39.153Z,950.32
2019-04-07T01:41:39.163Z,950.35
2019-04-07T01:42:39.755Z,950.31
2019-04-07T01:43:39.394Z,950.30
2019-04-07T01:44:39.759Z,950.34
2019-04-07T01:45:39.220Z,950.33
2019-04-07T01:46:39.086Z,950.37
2019-04-07T01:47:39.634Z,950.36
2019-04-07T01:48:39.596Z,950.35
2019-04-07T01:49:39.070Z,950.36
2019-04-07T01:50:39.051Z,950.29
2019-04-07T01:51:39.074Z,950.34
2019-04-07T01:52:39.061Z,950.36
2019-04-07T01:53:39.312Z,950.36
2019-04-07T01:54:39.578Z,950.32
2019-04-07T01:55:39.014Z,950.31
2019-04-07T01:56:39.770Z,950.31
2019-04-07T01:57:38.962Z,950.30
2019-04-07T01:58:38.952Z,950.30
2019-04-07T01:59:39.266Z,950.31
2019-04-07T02:00:39.137Z,950.33
2019-04-07T02:01:38.954Z,950.33
2019-04-07T02:02:39.183Z,950.32
2019-04-07T02:03:38.901Z,950.34
2019-04-07T02:04:38.985Z,950.42
2019-04-07T02:05:39.217Z,950.37
2019-04-07T02:06:38.877Z,950.38
2019-04-07T02:07:39.101Z,950.38
2019-04-07T02:08:39.463Z,950.40
2019-04-07T02:09:39.151Z,950.37
2019-04-07T02:10:39.512Z,950.40
2019-04-07T02:11:38.810Z,950.46
2019-04-07T02:12:38.823Z,950.44
2019-04-07T02:13:39.284Z,950.44
2019-04-07T02:14:39.414Z,950.46
2019-04-07T02:15:39.375Z,950.47
2019-04-07T02:16:38.753Z,950.39
2019-04-07T02:17:38.825Z,950.43
2019-04-07T02:18:38.887Z,950.36
2019-04-07T02:19:39.538Z,950.42
2019-04-07T02:20:38.826Z,950.42
2019-04-07T02:21:39.169Z,950.53
2019-04-07T02:22:39.318Z,950.47
2019-04-07T02:23:39.303Z,950.51
2019-04-07T02:24:38.874Z,950.52
2019-04-07T02:25:38.682Z,950.46
2019-04-07T02:26:39.043Z,950.45
2019-04-07T02:27:38.640Z,950.49
2019-04-07T02:28:38.630Z,950.45
2019-04-07T02:29:38.837Z,950.46
2019-04-07T02:30:39.272Z,950.48
2019-04-07T02:31:38.587Z,950.51
2019-04-07T02:32:38.614Z,950.50
2019-04-07T02:33:39.417Z,950.52
2019-04-07T02:34:38.555Z,950.51
2019-04-07T02:35:38.555Z,950.55
2019-04-07T02:36:38.751Z,950.55
2019-04-07T02:37:38.773Z,950.55
2019-04-07T02:38:38.918Z,950.53
2019-04-07T02:39:38.819Z,950.58
2019-04-07T02:40:39.397Z,950.57
2019-04-07T02:41:38.494Z,950.59
2019-04-07T02:42:39.512Z,950.59
2019-04-07T02:43:38.606Z,950.54
2019-04-07T02:44:38.966Z,950.58
2019-04-07T02:45:38.447Z,950.56
2019-04-07T02:46:39.354Z,950.66
2019-04-07T02:47:39.283Z,950.66
2019-04-07T02:48:39.453Z,950.71
2019-04-07T02:49:39.302Z,950.76
2019-04-07T02:50:38.611Z,950.70
2019-04-07T02:51:38.468Z,950.66
2019-04-07T02:52:38.928Z,950.65
2019-04-07T02:53:39.169Z,950.65
2019-04-07T02:54:38.389Z,950.63
2019-04-07T02:55:38.333Z,950.65
2019-04-07T02:56:38.307Z,950.62
2019-04-07T02:57:38.314Z,950.65
2019-04-07T02:58:38.305Z,950.62
2019-04-07T02:59:41.441Z,950.69
2019-04-07T03:00:39.282Z,950.62
2019-04-07T03:01:38.306Z,950.66
2019-04-07T03:02:39.207Z,950.62
2019-04-07T03:03:39.195Z,950.66
2019-04-07T03:04:38.417Z,950.69
2019-04-07T03:05:38.437Z,950.71
2019-04-07T03:06:47.310Z,950.76
2019-04-07T03:07:39.088Z,950.70
2019-04-07T03:08:38.188Z,950.71
2019-04-07T03:09:38.187Z,950.72
2019-04-07T03:10:38.560Z,950.69
2019-04-07T03:11:38.155Z,950.75
2019-04-07T03:12:38.216Z,950.72
2019-04-07T03:13:38.198Z,950.77
2019-04-07T03:14:39.156Z,950.70
2019-04-07T03:15:38.823Z,950.72
2019-04-07T03:16:38.104Z,950.72
2019-04-07T03:17:38.128Z,950.76
2019-04-07T03:18:38.993Z,950.73
2019-04-07T03:19:38.058Z,950.69
2019-04-07T03:20:39.136Z,950.68
2019-04-07T03:21:38.282Z,950.70
2019-04-07T03:22:38.466Z,950.65
2019-04-07T03:23:38.381Z,950.66
2019-04-07T03:24:38.035Z,950.69
2019-04-07T03:25:38.647Z,950.62
2019-04-07T03:26:37.974Z,950.65
2019-04-07T03:27:38.245Z,950.71
2019-04-07T03:28:37.976Z,950.70
2019-04-07T03:29:38.399Z,950.74
2019-04-07T03:30:40.284Z,950.71
2019-04-07T03:31:38.894Z,950.68
2019-04-07T03:32:40.294Z,950.64
2019-04-07T03:33:40.620Z,950.65
2019-04-07T03:34:40.134Z,950.64
2019-04-07T03:35:40.287Z,950.65
2019-04-07T03:37:09.650Z,950.63
2019-04-07T03:37:44.001Z,950.68
2019-04-07T03:38:39.183Z,950.66
2019-04-07T03:39:38.232Z,950.74
2019-04-07T03:40:37.979Z,950.71
2019-04-07T03:41:38.591Z,950.67
2019-04-07T03:42:38.470Z,950.69
2019-04-07T03:43:38.006Z,950.73
2019-04-07T03:44:37.794Z,950.71
2019-04-07T03:45:37.961Z,950.72
2019-04-07T03:46:38.817Z,950.71
2019-04-07T03:47:37.753Z,950.68
2019-04-07T03:48:38.018Z,950.74
2019-04-07T03:49:38.073Z,950.72
2019-04-07T03:50:38.663Z,950.72
2019-04-07T03:51:37.892Z,950.76
2019-04-07T03:52:37.683Z,950.73
2019-04-07T03:53:37.690Z,950.82
2019-04-07T03:54:37.891Z,950.70
2019-04-07T03:55:38.482Z,950.70
2019-04-07T03:56:37.645Z,950.71
2019-04-07T03:57:37.643Z,950.69
2019-04-07T03:58:37.767Z,950.71
2019-04-07T03:59:38.381Z,950.72
2019-04-07T04:00:37.619Z,950.66
2019-04-07T04:01:37.587Z,950.69
2019-04-07T04:02:37.954Z,950.66
2019-04-07T04:03:38.591Z,950.75
2019-04-07T04:04:37.558Z,950.72
2019-04-07T04:05:37.537Z,950.71
2019-04-07T04:06:37.612Z,950.70
2019-04-07T04:07:38.702Z,950.70
2019-04-07T04:08:38.302Z,950.76
2019-04-07T04:09:40.573Z,950.80
2019-04-07T04:10:38.452Z,950.72
2019-04-07T04:11:37.668Z,950.77
2019-04-07T04:12:37.837Z,950.80
2019-04-07T04:13:37.956Z,950.79
2019-04-07T04:14:37.725Z,950.77
2019-04-07T04:15:38.048Z,950.79
2019-04-07T04:16:37.426Z,950.88
2019-04-07T04:17:37.408Z,950.89
2019-04-07T04:18:37.640Z,950.81
2019-04-07T04:19:37.433Z,950.88
2019-04-07T04:20:37.412Z,950.86
2019-04-07T04:21:37.991Z,950.89
2019-04-07T04:22:37.944Z,950.86
2019-04-07T04:23:40.046Z,950.86
2019-04-07T04:24:38.121Z,950.88
2019-04-07T04:25:37.606Z,950.86
2019-04-07T04:26:37.952Z,950.93
2019-04-07T04:27:37.295Z,950.91
2019-04-07T04:28:37.287Z,950.94
2019-04-07T04:29:37.452Z,950.94
2019-04-07T04:30:37.297Z,950.98
2019-04-07T04:31:37.276Z,950.94
2019-04-07T04:32:37.257Z,950.97
2019-04-07T04:33:37.736Z,950.97
2019-04-07T04:34:37.236Z,951.02
2019-04-07T04:35:37.512Z,950.97
2019-04-07T04:36:38.053Z,951.03
2019-04-07T04:37:44.195Z,951.03
2019-04-07T04:38:37.204Z,950.98
2019-04-07T04:39:37.559Z,951.02
2019-04-07T04:40:37.549Z,951.01
2019-04-07T04:41:37.149Z,951.03
2019-04-07T04:42:37.577Z,951.03
2019-04-07T04:43:38.031Z,951.02
2019-04-07T04:44:37.929Z,951.05
2019-04-07T04:45:37.096Z,951.06
2019-04-07T04:46:37.080Z,951.13
2019-04-07T04:47:37.666Z,951.10
2019-04-07T04:48:37.067Z,951.12
2019-04-07T04:49:37.244Z,951.07
2019-04-07T04:50:37.354Z,951.07
2019-04-07T04:51:39.546Z,951.05
2019-04-07T04:52:37.017Z,951.09
2019-04-07T04:53:38.062Z,951.08
2019-04-07T04:54:37.006Z,951.14
2019-04-07T04:55:37.328Z,951.09
2019-04-07T04:56:37.352Z,951.10
2019-04-07T04:57:36.955Z,951.10
2019-04-07T04:58:36.948Z,951.14
2019-04-07T04:59:36.945Z,951.11
2019-04-07T05:00:36.935Z,951.14
2019-04-07T05:01:37.806Z,951.12
2019-04-07T05:02:36.915Z,951.17
2019-04-07T05:03:36.894Z,951.14
2019-04-07T05:04:37.427Z,951.13
2019-04-07T05:05:36.893Z,951.17
2019-04-07T05:06:36.991Z,951.18
2019-04-07T05:07:48.840Z,951.16
2019-04-07T05:08:36.858Z,951.14
2019-04-07T05:09:44.341Z,951.13
2019-04-07T05:10:37.175Z,951.17
2019-04-07T05:11:37.095Z,951.19
2019-04-07T05:12:37.014Z,951.23
2019-04-07T05:13:37.319Z,951.20
2019-04-07T05:14:36.771Z,951.29
2019-04-07T05:15:36.779Z,951.23
2019-04-07T05:16:37.273Z,951.26
2019-04-07T05:17:36.974Z,951.25
2019-04-07T05:18:37.151Z,951.27
2019-04-07T05:19:37.285Z,951.24
2019-04-07T05:20:36.715Z,951.22
2019-04-07T05:21:36.698Z,951.24
2019-04-07T05:22:36.873Z,951.28
2019-04-07T05:23:36.680Z,951.36
2019-04-07T05:24:36.725Z,951.31
2019-04-07T05:25:36.955Z,951.31
2019-04-07T05:26:36.637Z,951.36
2019-04-07T05:27:36.620Z,951.31
2019-04-07T05:28:37.301Z,951.28
2019-04-07T05:29:36.695Z,951.31
2019-04-07T05:30:36.615Z,951.31
2019-04-07T05:31:37.036Z,951.35
2019-04-07T05:32:36.799Z,951.34
2019-04-07T05:33:36.748Z,951.37
2019-04-07T05:34:36.735Z,951.40
2019-04-07T05:35:37.857Z,951.41
2019-04-07T05:36:36.946Z,951.41
2019-04-07T05:37:36.513Z,951.43
2019-04-07T05:38:36.698Z,951.42
2019-04-07T05:39:37.193Z,951.43
2019-04-07T05:40:36.682Z,951.49
2019-04-07T05:41:36.488Z,951.49
2019-04-07T05:42:36.453Z,951.51
2019-04-07T05:43:36.957Z,951.52
2019-04-07T05:44:37.178Z,951.50
2019-04-07T05:45:37.639Z,951.52
2019-04-07T05:46:40.130Z,951.52
2019-04-07T05:47:37.517Z,951.54
2019-04-07T05:48:37.064Z,951.55
2019-04-07T05:49:36.420Z,951.51
2019-04-07T05:50:36.368Z,951.56
2019-04-07T05:51:37.009Z,951.56
2019-04-07T05:52:39.524Z,951.55
2019-04-07T05:53:36.360Z,951.52
2019-04-07T05:54:36.335Z,951.55
2019-04-07T05:55:36.310Z,951.58
2019-04-07T05:56:36.897Z,951.51
2019-04-07T05:57:36.299Z,951.59
2019-04-07T05:58:38.601Z,951.53
2019-04-07T05:59:36.517Z,951.57
2019-04-07T06:00:36.257Z,951.61
2019-04-07T06:01:36.715Z,951.62
2019-04-07T06:02:36.384Z,951.59
2019-04-07T06:03:41.224Z,951.56
2019-04-07T06:04:36.228Z,951.59
2019-04-07T06:05:36.877Z,951.58
2019-04-07T06:06:37.044Z,951.59
2019-04-07T06:07:37.096Z,951.61
2019-04-07T06:08:39.225Z,951.63
2019-04-07T06:09:36.252Z,951.56
2019-04-07T06:10:36.987Z,951.58
2019-04-07T06:11:36.252Z,951.56
2019-04-07T06:12:39.353Z,951.51
2019-04-07T06:13:36.113Z,951.52
2019-04-07T06:14:36.768Z,951.47
2019-04-07T06:15:36.105Z,951.49
2019-04-07T06:16:36.095Z,951.45
2019-04-07T06:17:36.706Z,951.52
2019-04-07T06:18:36.781Z,951.52
2019-04-07T06:19:40.545Z,951.54
2019-04-07T06:20:36.069Z,951.54
2019-04-07T06:21:36.628Z,951.53
2019-04-07T06:22:36.034Z,951.53
2019-04-07T06:23:36.415Z,951.51
2019-04-07T06:24:36.076Z,951.55
2019-04-07T06:25:39.918Z,951.48
2019-04-07T06:26:37.127Z,951.53
2019-04-07T06:27:35.973Z,951.51
2019-04-07T06:28:35.940Z,951.48
2019-04-07T06:29:36.563Z,951.48
2019-04-07T06:30:36.886Z,951.46
2019-04-07T06:31:35.917Z,951.48
2019-04-07T06:32:37.551Z,951.48
2019-04-07T06:33:38.119Z,951.46
2019-04-07T06:34:39.874Z,951.48
2019-04-07T06:35:36.527Z,951.48
2019-04-07T06:36:35.852Z,951.52
2019-04-07T06:37:36.342Z,951.53
2019-04-07T06:38:41.183Z,951.50
2019-04-07T06:39:36.165Z,951.52
2019-04-07T06:40:35.808Z,951.60
2019-04-07T06:41:35.800Z,951.49
2019-04-07T06:42:36.475Z,951.56
2019-04-07T06:43:38.201Z,951.54
2019-04-07T06:44:35.776Z,951.51
2019-04-07T06:45:36.130Z,951.57
2019-04-07T06:46:35.771Z,951.57
2019-04-07T06:47:37.006Z,951.60
2019-04-07T06:48:38.051Z,951.58
2019-04-07T06:49:35.713Z,951.62
2019-04-07T06:50:45.465Z,951.63
2019-04-07T06:51:35.702Z,951.66
2019-04-07T06:52:39.819Z,951.67
2019-04-07T06:53:35.683Z,951.66
2019-04-07T06:54:35.655Z,951.62
2019-04-07T06:55:36.249Z,951.59
2019-04-07T06:56:35.652Z,951.56
2019-04-07T06:57:37.426Z,951.60
2019-04-07T06:58:38.817Z,951.60
2019-04-07T06:59:35.599Z,951.61
2019-04-07T07:00:35.814Z,951.68
2019-04-07T07:01:35.594Z,951.71
2019-04-07T07:02:35.844Z,951.66
2019-04-07T07:03:38.098Z,951.66
2019-04-07T07:04:35.607Z,951.70
2019-04-07T07:05:36.234Z,951.67
2019-04-07T07:06:35.628Z,951.69
2019-04-07T07:07:35.735Z,951.63
2019-04-07T07:08:44.507Z,951.67
2019-04-07T07:09:35.966Z,951.66
2019-04-07T07:10:38.850Z,951.62
2019-04-07T07:11:40.377Z,951.67
2019-04-07T07:12:38.783Z,951.74
2019-04-07T07:13:36.697Z,951.69
2019-04-07T07:14:42.637Z,951.73
2019-04-07T07:15:36.447Z,951.81
2019-04-07T07:16:36.132Z,951.75
2019-04-07T07:17:35.564Z,951.79
2019-04-07T07:18:35.771Z,951.76
2019-04-07T07:19:35.395Z,951.75
2019-04-07T07:20:36.120Z,951.73
2019-04-07T07:21:38.727Z,951.76
2019-04-07T07:22:35.734Z,951.79
2019-04-07T07:23:35.330Z,951.80
2019-04-07T07:24:35.894Z,951.78
2019-04-07T07:25:35.317Z,951.80
2019-04-07T07:26:35.541Z,951.75
2019-04-07T07:27:38.907Z,951.80
2019-04-07T07:28:36.024Z,951.82
2019-04-07T07:29:35.325Z,951.88
2019-04-07T07:30:35.850Z,951.84
2019-04-07T07:31:35.783Z,951.85
2019-04-07T07:32:37.269Z,951.82
2019-04-07T07:33:38.364Z,951.81
2019-04-07T07:34:35.852Z,951.77
2019-04-07T07:35:35.226Z,951.80
2019-04-07T07:36:35.226Z,951.82
2019-04-07T07:37:35.364Z,951.79
2019-04-07T07:38:35.195Z,951.81
2019-04-07T07:39:35.159Z,951.89
2019-04-07T07:40:35.257Z,951.85
2019-04-07T07:41:35.621Z,951.93
2019-04-07T07:42:35.551Z,951.87
2019-04-07T07:43:35.208Z,951.91
2019-04-07T07:44:37.888Z,951.85
2019-04-07T07:45:35.089Z,951.81
2019-04-07T07:46:35.075Z,951.82
2019-04-07T07:47:35.071Z,951.89
2019-04-07T07:48:35.667Z,951.87
2019-04-07T07:49:39.851Z,951.88
2019-04-07T07:50:38.056Z,951.89
2019-04-07T07:51:37.713Z,951.84
2019-04-07T07:52:35.135Z,951.93
2019-04-07T07:53:35.034Z,951.94
2019-04-07T07:54:35.232Z,951.90
2019-04-07T07:55:37.581Z,951.94
2019-04-07T07:56:35.776Z,951.97
2019-04-07T07:57:35.551Z,951.91
2019-04-07T07:58:35.547Z,951.92
2019-04-07T07:59:38.975Z,951.90
2019-04-07T08:00:39.996Z,951.91
2019-04-07T08:01:34.935Z,951.92
2019-04-07T08:02:35.323Z,951.86
2019-04-07T08:03:35.186Z,951.89
2019-04-07T08:04:35.523Z,951.92
2019-04-07T08:05:34.902Z,951.99
2019-04-07T08:06:38.494Z,951.96
2019-04-07T08:07:34.873Z,951.96
2019-04-07T08:08:35.244Z,951.94
2019-04-07T08:09:34.819Z,951.98
2019-04-07T08:10:35.122Z,951.98
2019-04-07T08:11:35.540Z,951.97
2019-04-07T08:12:35.797Z,952.00
2019-04-07T08:13:41.222Z,952.02
2019-04-07T08:14:35.979Z,952.04
2019-04-07T08:15:34.758Z,952.03
2019-04-07T08:16:34.758Z,952.09
2019-04-07T08:17:35.569Z,952.07
2019-04-07T08:18:37.165Z,952.08
2019-04-07T08:19:34.708Z,952.04
2019-04-07T08:20:35.002Z,952.09
2019-04-07T08:21:34.715Z,952.11
2019-04-07T08:22:40.582Z,952.12
2019-04-07T08:23:35.161Z,952.13
2019-04-07T08:24:35.132Z,952.07
2019-04-07T08:25:34.716Z,952.08
2019-04-07T08:26:35.137Z,952.13
2019-04-07T08:27:34.804Z,952.14
2019-04-07T08:28:35.868Z,952.12
2019-04-07T08:29:37.089Z,952.14
2019-04-07T08:30:34.602Z,952.16
2019-04-07T08:31:34.895Z,952.23
2019-04-07T08:32:34.574Z,952.23
2019-04-07T08:33:35.455Z,952.21
2019-04-07T08:34:34.911Z,952.19
2019-04-07T08:35:38.186Z,952.21
2019-04-07T08:36:34.784Z,952.20
2019-04-07T08:37:35.201Z,952.20
2019-04-07T08:38:34.529Z,952.21
2019-04-07T08:39:35.439Z,952.20
2019-04-07T08:40:36.486Z,952.23
2019-04-07T08:41:34.489Z,952.23
2019-04-07T08:42:34.486Z,952.20
2019-04-07T08:43:35.126Z,952.19
2019-04-07T08:44:34.512Z,952.17
2019-04-07T08:45:35.029Z,952.14
2019-04-07T08:46:38.620Z,952.14
2019-04-07T08:47:34.552Z,952.13
2019-04-07T08:48:34.386Z,952.12
2019-04-07T08:49:35.391Z,952.15
2019-04-07T08:50:35.023Z,952.19
2019-04-07T08:51:35.077Z,952.18
2019-04-07T08:52:34.423Z,952.20
2019-04-07T08:53:34.357Z,952.21
2019-04-07T08:54:34.325Z,952.20
2019-04-07T08:55:34.550Z,952.22
2019-04-07T08:56:34.302Z,952.20
2019-04-07T08:57:34.681Z,952.17
2019-04-07T08:58:38.426Z,952.20
2019-04-07T08:59:34.280Z,952.21
2019-04-07T09:00:34.293Z,952.22
2019-04-07T09:01:34.882Z,952.24
2019-04-07T09:02:34.701Z,952.22
2019-04-07T09:03:34.704Z,952.21
2019-04-07T09:04:34.453Z,952.27
2019-04-07T09:05:34.217Z,952.24
2019-04-07T09:06:34.195Z,952.26
2019-04-07T09:07:34.975Z,952.23
2019-04-07T09:08:36.123Z,952.24
2019-04-07T09:09:36.961Z,952.27
2019-04-07T09:10:34.788Z,952.28
2019-04-07T09:11:34.601Z,952.25
2019-04-07T09:12:34.954Z,952.25
2019-04-07T09:13:34.407Z,952.26
2019-04-07T09:14:37.273Z,952.23
2019-04-07T09:15:34.883Z,952.24
2019-04-07T09:16:34.383Z,952.21
2019-04-07T09:17:41.042Z,952.18
2019-04-07T09:18:34.058Z,952.22
2019-04-07T09:19:35.753Z,952.24
2019-04-07T09:20:34.656Z,952.23
2019-04-07T09:21:39.854Z,952.21
2019-04-07T09:22:34.707Z,952.26
2019-04-07T09:23:34.420Z,952.24
2019-04-07T09:24:33.987Z,952.23
2019-04-07T09:25:35.833Z,952.24
2019-04-07T09:26:34.361Z,952.25
2019-04-07T09:27:34.079Z,952.21
2019-04-07T09:28:34.276Z,952.26
2019-04-07T09:29:33.959Z,952.23
2019-04-07T09:30:33.920Z,952.17
2019-04-07T09:31:33.922Z,952.19
2019-04-07T09:32:34.462Z,952.21
2019-04-07T09:33:35.888Z,952.17
2019-04-07T09:34:34.534Z,952.18
2019-04-07T09:35:33.873Z,952.20
2019-04-07T09:36:33.860Z,952.23
2019-04-07T09:37:33.846Z,952.24
2019-04-07T09:38:33.844Z,952.25
2019-04-07T09:39:50.718Z,952.21
2019-04-07T09:40:34.007Z,952.23
2019-04-07T09:41:33.812Z,952.24
2019-04-07T09:42:33.788Z,952.23
2019-04-07T09:43:33.789Z,952.24
2019-04-07T09:44:36.584Z,952.26
2019-04-07T09:45:34.532Z,952.24
2019-04-07T09:46:33.782Z,952.25
2019-04-07T09:47:33.738Z,952.19
2019-04-07T09:48:33.720Z,952.26
2019-04-07T09:49:33.712Z,952.26
2019-04-07T09:50:33.721Z,952.30
2019-04-07T09:51:37.609Z,952.27
2019-04-07T09:52:33.928Z,952.31
2019-04-07T09:53:33.824Z,952.26
2019-04-07T09:54:33.652Z,952.28
2019-04-07T09:55:33.646Z,952.33
2019-04-07T09:56:33.797Z,952.31
2019-04-07T09:57:37.505Z,952.32
2019-04-07T09:58:35.046Z,952.30
2019-04-07T09:59:33.903Z,952.31
2019-04-07T10:00:33.911Z,952.33
2019-04-07T10:01:34.135Z,952.33
2019-04-07T10:02:35.523Z,952.31
2019-04-07T10:03:35.486Z,952.30
2019-04-07T10:04:37.914Z,952.36
2019-04-07T10:05:33.534Z,952.36
2019-04-07T10:06:33.524Z,952.33
2019-04-07T10:07:33.539Z,952.32
2019-04-07T10:08:33.512Z,952.33
2019-04-07T10:09:33.613Z,952.31
2019-04-07T10:10:35.002Z,952.32
2019-04-07T10:11:33.878Z,952.31
2019-04-07T10:12:33.551Z,952.34
2019-04-07T10:13:34.121Z,952.31
2019-04-07T10:14:33.449Z,952.31
2019-04-07T10:15:33.804Z,952.37
2019-04-07T10:16:35.054Z,952.36
2019-04-07T10:17:34.044Z,952.33
2019-04-07T10:18:34.046Z,952.31
2019-04-07T10:19:33.390Z,952.35
2019-04-07T10:20:33.653Z,952.39
2019-04-07T10:21:33.354Z,952.32
2019-04-07T10:22:34.072Z,952.32
2019-04-07T10:23:33.340Z,952.33
2019-04-07T10:24:33.317Z,952.35
2019-04-07T10:25:33.316Z,952.37
2019-04-07T10:26:33.716Z,952.39
2019-04-07T10:27:33.941Z,952.40
2019-04-07T10:28:33.463Z,952.38
2019-04-07T10:29:34.053Z,952.40
2019-04-07T10:30:33.265Z,952.40
2019-04-07T10:31:33.721Z,952.43
2019-04-07T10:32:33.961Z,952.44
2019-04-07T10:33:33.469Z,952.43
2019-04-07T10:34:33.207Z,952.46
2019-04-07T10:35:33.530Z,952.37
2019-04-07T10:36:33.341Z,952.42
2019-04-07T10:37:33.534Z,952.39
2019-04-07T10:38:33.200Z,952.41
2019-04-07T10:39:33.718Z,952.40
2019-04-07T10:40:33.462Z,952.42
2019-04-07T10:41:33.123Z,952.41
2019-04-07T10:42:33.548Z,952.45
2019-04-07T10:43:33.860Z,952.38
2019-04-07T10:44:34.095Z,952.39
2019-04-07T10:45:33.077Z,952.37
2019-04-07T10:46:33.659Z,952.39
2019-04-07T10:47:33.610Z,952.36
2019-04-07T10:48:33.264Z,952.35
2019-04-07T10:49:33.050Z,952.37
2019-04-07T10:50:33.658Z,952.32
2019-04-07T10:51:33.007Z,952.35
2019-04-07T10:52:33.875Z,952.32
2019-04-07T10:53:34.247Z,952.36
2019-04-07T10:54:33.662Z,952.30
2019-04-07T10:55:33.042Z,952.32
2019-04-07T10:56:32.959Z,952.29
2019-04-07T10:57:33.427Z,952.28
2019-04-07T10:58:33.279Z,952.33
2019-04-07T10:59:32.941Z,952.31
2019-04-07T11:00:33.436Z,952.30
2019-04-07T11:01:33.363Z,952.35
2019-04-07T11:02:32.889Z,952.36
2019-04-07T11:03:33.012Z,952.34
2019-04-07T11:04:32.862Z,952.35
2019-04-07T11:05:32.874Z,952.37
2019-04-07T11:06:33.826Z,952.41
2019-04-07T11:07:32.841Z,952.39
2019-04-07T11:08:33.087Z,952.40
2019-04-07T11:09:32.809Z,952.46
2019-04-07T11:10:37.815Z,952.44
2019-04-07T11:11:33.929Z,952.41
2019-04-07T11:12:32.881Z,952.40
2019-04-07T11:13:32.761Z,952.42
2019-04-07T11:14:33.071Z,952.47
2019-04-07T11:15:33.032Z,952.37
2019-04-07T11:16:32.893Z,952.35
2019-04-07T11:17:32.751Z,952.38
2019-04-07T11:18:32.755Z,952.38
2019-04-07T11:19:33.381Z,952.35
2019-04-07T11:20:32.683Z,952.39
2019-04-07T11:21:32.689Z,952.35
2019-04-07T11:22:33.778Z,952.32
2019-04-07T11:23:32.663Z,952.31
2019-04-07T11:24:32.663Z,952.28
2019-04-07T11:25:32.737Z,952.29
2019-04-07T11:26:32.634Z,952.27
2019-04-07T11:27:33.000Z,952.26
2019-04-07T11:28:32.617Z,952.25
2019-04-07T11:29:32.674Z,952.31
2019-04-07T11:30:33.297Z,952.30
2019-04-07T11:31:32.558Z,952.30
2019-04-07T11:32:32.551Z,952.28
2019-04-07T11:33:32.849Z,952.31
2019-04-07T11:34:33.135Z,952.33
2019-04-07T11:35:32.544Z,952.25
2019-04-07T11:36:32.516Z,952.30
2019-04-07T11:37:32.841Z,952.24
2019-04-07T11:38:32.500Z,952.26
2019-04-07T11:39:32.698Z,952.22
2019-04-07T11:40:41.931Z,952.22
2019-04-07T11:41:33.458Z,952.19
2019-04-07T11:42:33.329Z,952.18
2019-04-07T11:43:32.666Z,952.22
2019-04-07T11:44:32.431Z,952.16
2019-04-07T11:45:32.419Z,952.13
2019-04-07T11:46:33.001Z,952.15
2019-04-07T11:47:32.903Z,952.16
2019-04-07T11:48:33.170Z,952.16
2019-04-07T11:49:32.366Z,952.12
2019-04-07T11:50:32.713Z,952.16
2019-04-07T11:51:32.566Z,952.14
2019-04-07T11:52:33.309Z,952.13
2019-04-07T11:53:33.122Z,952.14
2019-04-07T11:54:32.720Z,952.15
2019-04-07T11:55:33.319Z,952.13
2019-04-07T11:56:32.294Z,952.15
2019-04-07T11:57:32.278Z,952.19
2019-04-07T11:58:34.474Z,952.17
2019-04-07T11:59:32.964Z,952.22
2019-04-07T12:00:32.232Z,952.18
2019-04-07T12:01:32.835Z,952.22
2019-04-07T12:02:33.071Z,952.19
2019-04-07T12:03:32.239Z,952.17
2019-04-07T12:04:32.718Z,952.23
2019-04-07T12:05:32.276Z,952.19
2019-04-07T12:06:32.170Z,952.24
2019-04-07T12:07:32.446Z,952.20
2019-04-07T12:08:36.048Z,952.24
2019-04-07T12:09:32.155Z,952.20
2019-04-07T12:10:32.152Z,952.20
2019-04-07T12:11:32.789Z,952.19
2019-04-07T12:12:32.098Z,952.23
2019-04-07T12:13:32.940Z,952.25
2019-04-07T12:14:32.109Z,952.25
2019-04-07T12:15:32.322Z,952.25
2019-04-07T12:16:32.091Z,952.24
2019-04-07T12:17:32.048Z,952.26
2019-04-07T12:18:32.819Z,952.21
2019-04-07T12:19:32.198Z,952.26
2019-04-07T12:20:33.777Z,952.23
2019-04-07T12:21:35.417Z,952.23
2019-04-07T12:22:32.665Z,952.25
2019-04-07T12:23:32.728Z,952.23
2019-04-07T12:24:32.545Z,952.26
2019-04-07T12:25:33.343Z,952.21
2019-04-07T12:26:34.652Z,952.21
2019-04-07T12:27:31.956Z,952.19
2019-04-07T12:28:31.973Z,952.17